sensor_id;sensor_type;location;lat;lon;timestamp;pressure;altitude;pressure_sealevel;temperature;humidity
37078;BME280;22989;55.998;37.212;2023-04-27T00:00:59;116983.66;;;-145.39;54.80
37078;BME280;22989;55.998;37.212;2023-04-27T00:03:25;116983.66;;;-145.39;54.79
37078;BME280;22989;55.998;37.212;2023-04-27T00:05:51;116983.66;;;-145.39;54.91
37078;BME280;22989;55.998;37.212;2023-04-27T00:08:17;116983.66;;;-145.39;55.02
37078;BME280;22989;55.998;37.212;2023-04-27T00:10:42;116983.66;;;-145.39;55.10
37078;BME280;22989;55.998;37.212;2023-04-27T00:13:08;116983.66;;;-145.39;55.08
37078;BME280;22989;55.998;37.212;2023-04-27T00:15:33;116983.66;;;-145.39;55.19
37078;BME280;22989;55.998;37.212;2023-04-27T00:17:59;116983.66;;;-145.39;55.20
37078;BME280;22989;55.998;37.212;2023-04-27T00:20:25;116983.66;;;-145.39;55.17
37078;BME280;22989;55.998;37.212;2023-04-27T00:22:51;116983.66;;;-145.39;55.28
37078;BME280;22989;55.998;37.212;2023-04-27T00:25:16;116983.66;;;-145.39;55.36
37078;BME280;22989;55.998;37.212;2023-04-27T00:27:42;116983.66;;;-145.39;55.54
37078;BME280;22989;55.998;37.212;2023-04-27T00:30:07;116983.66;;;-145.39;55.63
37078;BME280;22989;55.998;37.212;2023-04-27T00:32:33;116983.66;;;-145.39;55.51
37078;BME280;22989;55.998;37.212;2023-04-27T00:34:59;116983.66;;;-145.39;55.57
37078;BME280;22989;55.998;37.212;2023-04-27T00:37:24;116983.66;;;-145.39;55.53
37078;BME280;22989;55.998;37.212;2023-04-27T00:39:49;116983.66;;;-145.39;55.44
37078;BME280;22989;55.998;37.212;2023-04-27T00:42:16;116983.66;;;-145.39;55.52
37078;BME280;22989;55.998;37.212;2023-04-27T00:44:45;116983.66;;;-145.39;55.63
37078;BME280;22989;55.998;37.212;2023-04-27T00:47:10;116983.66;;;-145.39;55.70
37078;BME280;22989;55.998;37.212;2023-04-27T00:49:36;116983.66;;;-145.39;55.68
37078;BME280;22989;55.998;37.212;2023-04-27T00:52:02;116983.66;;;-145.39;55.71
37078;BME280;22989;55.998;37.212;2023-04-27T00:54:27;116983.66;;;-145.39;55.99
37078;BME280;22989;55.998;37.212;2023-04-27T00:56:53;116983.66;;;-145.39;56.02
37078;BME280;22989;55.998;37.212;2023-04-27T00:59:20;116983.66;;;-145.39;56.11
37078;BME280;22989;55.998;37.212;2023-04-27T01:01:46;116983.66;;;-145.39;56.18
37078;BME280;22989;55.998;37.212;2023-04-27T01:04:11;116983.66;;;-145.39;56.34
37078;BME280;22989;55.998;37.212;2023-04-27T01:06:37;116983.66;;;-145.39;56.43
37078;BME280;22989;55.998;37.212;2023-04-27T01:09:03;116983.66;;;-145.39;56.42
37078;BME280;22989;55.998;37.212;2023-04-27T01:11:31;116983.66;;;-145.39;56.40
37078;BME280;22989;55.998;37.212;2023-04-27T01:13:57;116983.66;;;-145.39;56.54
37078;BME280;22989;55.998;37.212;2023-04-27T01:16:27;116983.66;;;-145.39;56.71
37078;BME280;22989;55.998;37.212;2023-04-27T01:18:53;116983.66;;;-145.39;56.75
37078;BME280;22989;55.998;37.212;2023-04-27T01:21:18;116983.66;;;-145.39;56.92
37078;BME280;22989;55.998;37.212;2023-04-27T01:23:44;116983.66;;;-145.39;56.98
37078;BME280;22989;55.998;37.212;2023-04-27T01:26:09;116983.66;;;-145.39;57.09
37078;BME280;22989;55.998;37.212;2023-04-27T01:28:37;116983.66;;;-145.39;57.26
37078;BME280;22989;55.998;37.212;2023-04-27T01:31:03;116983.66;;;-145.39;57.27
37078;BME280;22989;55.998;37.212;2023-04-27T01:33:28;116983.66;;;-145.39;57.31
37078;BME280;22989;55.998;37.212;2023-04-27T01:35:54;116983.66;;;-145.39;57.47
37078;BME280;22989;55.998;37.212;2023-04-27T01:38:19;116983.66;;;-145.39;57.57
37078;BME280;22989;55.998;37.212;2023-04-27T01:40:45;116983.66;;;-145.39;57.58
37078;BME280;22989;55.998;37.212;2023-04-27T01:43:11;116983.66;;;-145.39;57.70
37078;BME280;22989;55.998;37.212;2023-04-27T01:45:37;116983.66;;;-145.39;57.71
37078;BME280;22989;55.998;37.212;2023-04-27T01:48:02;116983.66;;;-145.39;57.73
37078;BME280;22989;55.998;37.212;2023-04-27T01:50:28;116983.66;;;-145.39;57.85
37078;BME280;22989;55.998;37.212;2023-04-27T01:52:53;116983.66;;;-145.39;57.77
37078;BME280;22989;55.998;37.212;2023-04-27T01:55:20;116983.66;;;-145.39;57.90
37078;BME280;22989;55.998;37.212;2023-04-27T01:57:46;116983.66;;;-145.39;57.92
37078;BME280;22989;55.998;37.212;2023-04-27T02:00:11;116983.66;;;-145.39;57.90
37078;BME280;22989;55.998;37.212;2023-04-27T02:02:46;116983.66;;;-145.39;57.87
37078;BME280;22989;55.998;37.212;2023-04-27T02:05:11;116983.66;;;-145.39;57.97
37078;BME280;22989;55.998;37.212;2023-04-27T02:07:37;116983.66;;;-145.39;58.02
37078;BME280;22989;55.998;37.212;2023-04-27T02:10:02;116983.66;;;-145.39;58.07
37078;BME280;22989;55.998;37.212;2023-04-27T02:12:28;116983.66;;;-145.39;58.14
37078;BME280;22989;55.998;37.212;2023-04-27T02:14:53;116983.66;;;-145.39;58.28
37078;BME280;22989;55.998;37.212;2023-04-27T02:17:19;116983.66;;;-145.39;58.35
37078;BME280;22989;55.998;37.212;2023-04-27T02:19:44;116983.66;;;-145.39;58.30
37078;BME280;22989;55.998;37.212;2023-04-27T02:22:10;116983.66;;;-145.39;58.32
37078;BME280;22989;55.998;37.212;2023-04-27T02:24:35;116983.66;;;-145.39;58.32
37078;BME280;22989;55.998;37.212;2023-04-27T02:27:01;116983.66;;;-145.39;58.32
37078;BME280;22989;55.998;37.212;2023-04-27T02:29:30;116983.66;;;-145.39;58.34
37078;BME280;22989;55.998;37.212;2023-04-27T02:31:55;116983.66;;;-145.39;58.41
37078;BME280;22989;55.998;37.212;2023-04-27T02:34:21;116983.66;;;-145.39;58.48
37078;BME280;22989;55.998;37.212;2023-04-27T02:36:46;116983.66;;;-145.39;58.32
37078;BME280;22989;55.998;37.212;2023-04-27T02:39:12;116983.66;;;-145.39;58.35
37078;BME280;22989;55.998;37.212;2023-04-27T02:41:37;116983.66;;;-145.39;58.29
37078;BME280;22989;55.998;37.212;2023-04-27T02:44:03;116983.66;;;-145.39;58.28
37078;BME280;22989;55.998;37.212;2023-04-27T02:46:29;116983.66;;;-145.39;58.24
37078;BME280;22989;55.998;37.212;2023-04-27T02:48:55;116983.66;;;-145.39;58.27
37078;BME280;22989;55.998;37.212;2023-04-27T02:51:21;116983.66;;;-145.39;58.48
37078;BME280;22989;55.998;37.212;2023-04-27T02:53:47;116983.66;;;-145.39;58.41
37078;BME280;22989;55.998;37.212;2023-04-27T02:56:13;116983.66;;;-145.39;58.50
37078;BME280;22989;55.998;37.212;2023-04-27T02:58:38;116983.66;;;-145.39;58.24
37078;BME280;22989;55.998;37.212;2023-04-27T03:01:03;116983.66;;;-145.39;58.30
37078;BME280;22989;55.998;37.212;2023-04-27T03:03:29;116983.66;;;-145.39;58.20
37078;BME280;22989;55.998;37.212;2023-04-27T03:05:54;116983.66;;;-145.39;58.17
37078;BME280;22989;55.998;37.212;2023-04-27T03:08:20;116983.66;;;-145.39;58.31
37078;BME280;22989;55.998;37.212;2023-04-27T03:10:45;116983.66;;;-145.39;58.61
37078;BME280;22989;55.998;37.212;2023-04-27T03:13:11;116983.66;;;-145.39;58.63
37078;BME280;22989;55.998;37.212;2023-04-27T03:15:36;116983.66;;;-145.39;56.62
37078;BME280;22989;55.998;37.212;2023-04-27T03:18:02;116983.66;;;-145.39;55.22
37078;BME280;22989;55.998;37.212;2023-04-27T03:20:27;116983.66;;;-145.39;54.13
37078;BME280;22989;55.998;37.212;2023-04-27T03:22:52;116983.66;;;-145.39;52.23
37078;BME280;22989;55.998;37.212;2023-04-27T03:25:18;116983.66;;;-145.39;49.42
37078;BME280;22989;55.998;37.212;2023-04-27T03:27:43;116983.66;;;-145.39;46.84
37078;BME280;22989;55.998;37.212;2023-04-27T03:30:10;116983.66;;;-145.39;44.78
37078;BME280;22989;55.998;37.212;2023-04-27T03:32:36;116983.66;;;-145.39;43.37
37078;BME280;22989;55.998;37.212;2023-04-27T03:35:01;116983.66;;;-145.39;41.68
37078;BME280;22989;55.998;37.212;2023-04-27T03:37:27;116983.66;;;-145.39;37.17
37078;BME280;22989;55.998;37.212;2023-04-27T03:39:55;116983.66;;;-145.39;37.53
37078;BME280;22989;55.998;37.212;2023-04-27T03:42:21;116983.66;;;-145.39;37.09
37078;BME280;22989;55.998;37.212;2023-04-27T03:44:46;116983.66;;;-145.39;37.42
37078;BME280;22989;55.998;37.212;2023-04-27T03:47:12;116983.66;;;-145.39;34.77
37078;BME280;22989;55.998;37.212;2023-04-27T03:49:38;116983.66;;;-145.39;34.29
37078;BME280;22989;55.998;37.212;2023-04-27T03:52:05;116983.66;;;-145.39;34.20
37078;BME280;22989;55.998;37.212;2023-04-27T03:54:33;116983.66;;;-145.39;33.35
37078;BME280;22989;55.998;37.212;2023-04-27T03:56:58;116983.66;;;-145.39;31.44
37078;BME280;22989;55.998;37.212;2023-04-27T03:59:24;116983.66;;;-145.39;31.38
37078;BME280;22989;55.998;37.212;2023-04-27T04:01:50;116983.66;;;-145.39;30.52
37078;BME280;22989;55.998;37.212;2023-04-27T04:04:16;116983.66;;;-145.39;29.24
37078;BME280;22989;55.998;37.212;2023-04-27T04:06:41;116983.66;;;-145.39;28.56
37078;BME280;22989;55.998;37.212;2023-04-27T04:09:07;116983.66;;;-145.39;28.14
37078;BME280;22989;55.998;37.212;2023-04-27T04:11:33;116983.66;;;-145.39;27.50
37078;BME280;22989;55.998;37.212;2023-04-27T04:14:00;116983.66;;;-145.39;27.27
37078;BME280;22989;55.998;37.212;2023-04-27T04:16:26;116983.66;;;-145.39;26.59
37078;BME280;22989;55.998;37.212;2023-04-27T04:18:51;116983.66;;;-145.39;26.47
37078;BME280;22989;55.998;37.212;2023-04-27T04:21:17;116983.66;;;-145.39;25.97
37078;BME280;22989;55.998;37.212;2023-04-27T04:23:42;116983.66;;;-145.39;25.95
37078;BME280;22989;55.998;37.212;2023-04-27T04:26:08;116983.66;;;-145.39;25.84
37078;BME280;22989;55.998;37.212;2023-04-27T04:28:34;116983.66;;;-145.39;25.37
37078;BME280;22989;55.998;37.212;2023-04-27T04:31:00;116983.66;;;-145.39;25.07
37078;BME280;22989;55.998;37.212;2023-04-27T04:33:26;116983.66;;;-145.39;24.78
37078;BME280;22989;55.998;37.212;2023-04-27T04:35:51;116983.66;;;-145.39;24.46
37078;BME280;22989;55.998;37.212;2023-04-27T04:38:17;116983.66;;;-145.39;24.62
37078;BME280;22989;55.998;37.212;2023-04-27T04:40:43;116983.66;;;-145.39;24.08
37078;BME280;22989;55.998;37.212;2023-04-27T04:43:09;116983.66;;;-145.39;23.99
37078;BME280;22989;55.998;37.212;2023-04-27T04:45:35;116983.66;;;-145.39;23.13
37078;BME280;22989;55.998;37.212;2023-04-27T04:48:01;116983.66;;;-145.39;23.28
37078;BME280;22989;55.998;37.212;2023-04-27T04:50:26;116983.66;;;-145.39;22.98
37078;BME280;22989;55.998;37.212;2023-04-27T04:52:52;116983.66;;;-145.39;22.76
37078;BME280;22989;55.998;37.212;2023-04-27T04:55:18;116983.66;;;-145.39;22.34
37078;BME280;22989;55.998;37.212;2023-04-27T04:57:44;116983.66;;;-145.39;22.37
37078;BME280;22989;55.998;37.212;2023-04-27T05:00:09;116983.66;;;-145.39;22.26
37078;BME280;22989;55.998;37.212;2023-04-27T05:02:38;116983.66;;;-145.39;22.21
37078;BME280;22989;55.998;37.212;2023-04-27T05:05:04;116983.66;;;-145.39;22.10
37078;BME280;22989;55.998;37.212;2023-04-27T05:07:30;116983.66;;;-145.39;21.87
37078;BME280;22989;55.998;37.212;2023-04-27T05:09:55;116983.66;;;-145.39;22.03
37078;BME280;22989;55.998;37.212;2023-04-27T05:12:21;116983.66;;;-145.39;22.53
37078;BME280;22989;55.998;37.212;2023-04-27T05:14:46;116983.66;;;-145.39;22.28
37078;BME280;22989;55.998;37.212;2023-04-27T05:17:12;116983.66;;;-145.39;21.47
37078;BME280;22989;55.998;37.212;2023-04-27T05:19:38;116983.66;;;-145.39;21.00
37078;BME280;22989;55.998;37.212;2023-04-27T05:22:03;116983.66;;;-145.39;21.04
37078;BME280;22989;55.998;37.212;2023-04-27T05:24:29;116983.66;;;-145.39;21.00
37078;BME280;22989;55.998;37.212;2023-04-27T05:26:54;116983.66;;;-145.39;20.58
37078;BME280;22989;55.998;37.212;2023-04-27T05:29:20;116983.66;;;-145.39;20.77
37078;BME280;22989;55.998;37.212;2023-04-27T05:31:46;116983.66;;;-145.39;20.51
37078;BME280;22989;55.998;37.212;2023-04-27T05:34:11;116983.66;;;-145.39;20.68
37078;BME280;22989;55.998;37.212;2023-04-27T05:36:37;116983.66;;;-145.39;20.39
37078;BME280;22989;55.998;37.212;2023-04-27T05:39:03;63935.97;;;-145.39;100.00
37078;BME280;22989;55.998;37.212;2023-04-27T05:41:29;63935.97;;;-145.39;100.00
37078;BME280;22989;55.998;37.212;2023-04-27T05:43:55;63935.97;;;-145.39;100.00
37078;BME280;22989;55.998;37.212;2023-04-27T05:46:20;63935.97;;;-145.39;100.00
37078;BME280;22989;55.998;37.212;2023-04-27T05:48:45;63935.97;;;-145.39;100.00
37078;BME280;22989;55.998;37.212;2023-04-27T05:51:11;63935.97;;;-145.39;100.00
37078;BME280;22989;55.998;37.212;2023-04-27T05:53:36;63935.97;;;-145.39;100.00
37078;BME280;22989;55.998;37.212;2023-04-27T05:56:02;63935.97;;;-145.39;100.00
37078;BME280;22989;55.998;37.212;2023-04-27T05:58:28;63935.97;;;-145.39;100.00
37078;BME280;22989;55.998;37.212;2023-04-27T06:00:54;63935.97;;;-145.39;100.00
37078;BME280;22989;55.998;37.212;2023-04-27T06:03:20;63935.97;;;-145.39;100.00
37078;BME280;22989;55.998;37.212;2023-04-27T06:05:45;63935.97;;;-145.39;100.00
37078;BME280;22989;55.998;37.212;2023-04-27T06:08:11;63935.97;;;-145.39;100.00
37078;BME280;22989;55.998;37.212;2023-04-27T06:10:39;63935.97;;;-145.39;100.00
37078;BME280;22989;55.998;37.212;2023-04-27T06:13:05;63935.97;;;-145.39;100.00
37078;BME280;22989;55.998;37.212;2023-04-27T06:15:30;63935.97;;;-145.39;100.00
37078;BME280;22989;55.998;37.212;2023-04-27T06:17:56;63935.97;;;-145.39;100.00
37078;BME280;22989;55.998;37.212;2023-04-27T06:20:21;63935.97;;;-145.39;100.00
37078;BME280;22989;55.998;37.212;2023-04-27T06:22:47;63935.97;;;-145.39;100.00
37078;BME280;22989;55.998;37.212;2023-04-27T06:25:12;63935.97;;;-145.39;100.00
37078;BME280;22989;55.998;37.212;2023-04-27T06:27:38;63935.97;;;-145.39;100.00
37078;BME280;22989;55.998;37.212;2023-04-27T06:30:04;63935.97;;;-145.39;100.00
37078;BME280;22989;55.998;37.212;2023-04-27T06:32:29;63935.97;;;-145.39;100.00
37078;BME280;22989;55.998;37.212;2023-04-27T06:34:55;63935.97;;;-145.39;100.00
37078;BME280;22989;55.998;37.212;2023-04-27T06:37:21;63935.97;;;-145.39;100.00
37078;BME280;22989;55.998;37.212;2023-04-27T06:39:46;63935.97;;;-145.39;100.00
37078;BME280;22989;55.998;37.212;2023-04-27T06:42:12;63935.97;;;-145.39;100.00
37078;BME280;22989;55.998;37.212;2023-04-27T06:44:38;63935.97;;;-145.39;100.00
37078;BME280;22989;55.998;37.212;2023-04-27T06:47:03;63935.97;;;-145.39;100.00
37078;BME280;22989;55.998;37.212;2023-04-27T06:49:29;63935.97;;;-145.39;100.00
37078;BME280;22989;55.998;37.212;2023-04-27T06:51:55;63935.97;;;-145.39;100.00
37078;BME280;22989;55.998;37.212;2023-04-27T06:54:20;63935.97;;;-145.39;100.00
37078;BME280;22989;55.998;37.212;2023-04-27T06:56:46;63935.97;;;-145.39;100.00
37078;BME280;22989;55.998;37.212;2023-04-27T06:59:11;63935.97;;;-145.39;100.00
37078;BME280;22989;55.998;37.212;2023-04-27T07:01:37;63935.97;;;-145.39;100.00
37078;BME280;22989;55.998;37.212;2023-04-27T07:04:02;63935.97;;;-145.39;100.00
37078;BME280;22989;55.998;37.212;2023-04-27T07:06:28;63935.97;;;-145.39;100.00
37078;BME280;22989;55.998;37.212;2023-04-27T07:08:53;63935.97;;;-145.39;100.00
37078;BME280;22989;55.998;37.212;2023-04-27T07:11:19;63935.97;;;-145.39;100.00
37078;BME280;22989;55.998;37.212;2023-04-27T07:13:44;63935.97;;;-145.39;100.00
37078;BME280;22989;55.998;37.212;2023-04-27T07:16:10;63935.97;;;-145.39;100.00
37078;BME280;22989;55.998;37.212;2023-04-27T07:18:35;63935.97;;;-145.39;100.00
37078;BME280;22989;55.998;37.212;2023-04-27T07:21:01;63935.97;;;-145.39;100.00
37078;BME280;22989;55.998;37.212;2023-04-27T07:23:26;63935.97;;;-145.39;100.00
37078;BME280;22989;55.998;37.212;2023-04-27T07:25:51;63935.97;;;-145.39;100.00
37078;BME280;22989;55.998;37.212;2023-04-27T07:28:18;63935.97;;;-145.39;100.00
37078;BME280;22989;55.998;37.212;2023-04-27T07:30:44;63935.97;;;-145.39;100.00
37078;BME280;22989;55.998;37.212;2023-04-27T07:33:09;63935.97;;;-145.39;100.00
37078;BME280;22989;55.998;37.212;2023-04-27T07:35:35;63935.97;;;-145.39;100.00
37078;BME280;22989;55.998;37.212;2023-04-27T07:38:01;63935.97;;;-145.39;100.00
37078;BME280;22989;55.998;37.212;2023-04-27T07:40:27;63935.97;;;-145.39;100.00
37078;BME280;22989;55.998;37.212;2023-04-27T07:42:53;63935.97;;;-145.39;100.00
37078;BME280;22989;55.998;37.212;2023-04-27T07:45:19;63935.97;;;-145.39;100.00
37078;BME280;22989;55.998;37.212;2023-04-27T07:47:45;63935.97;;;-145.39;100.00
37078;BME280;22989;55.998;37.212;2023-04-27T07:50:11;63935.97;;;-145.39;100.00
37078;BME280;22989;55.998;37.212;2023-04-27T07:52:38;63935.97;;;-145.39;100.00
37078;BME280;22989;55.998;37.212;2023-04-27T07:55:04;63935.97;;;-145.39;100.00
37078;BME280;22989;55.998;37.212;2023-04-27T07:57:29;63935.97;;;-145.39;100.00
37078;BME280;22989;55.998;37.212;2023-04-27T07:59:55;63935.97;;;-145.39;100.00
37078;BME280;22989;55.998;37.212;2023-04-27T08:02:21;63935.97;;;-145.39;100.00
37078;BME280;22989;55.998;37.212;2023-04-27T08:04:47;63935.97;;;-145.39;100.00
37078;BME280;22989;55.998;37.212;2023-04-27T08:07:13;63935.97;;;-145.39;100.00
37078;BME280;22989;55.998;37.212;2023-04-27T08:09:39;63935.97;;;-145.39;100.00
37078;BME280;22989;55.998;37.212;2023-04-27T08:12:07;63935.97;;;-145.39;100.00
37078;BME280;22989;55.998;37.212;2023-04-27T08:14:33;63935.97;;;-145.39;100.00
37078;BME280;22989;55.998;37.212;2023-04-27T08:16:58;63935.97;;;-145.39;100.00
37078;BME280;22989;55.998;37.212;2023-04-27T08:19:24;63935.97;;;-145.39;100.00
37078;BME280;22989;55.998;37.212;2023-04-27T08:21:49;63935.97;;;-145.39;100.00
37078;BME280;22989;55.998;37.212;2023-04-27T08:24:15;63935.97;;;-145.39;100.00
37078;BME280;22989;55.998;37.212;2023-04-27T08:26:40;63935.97;;;-145.39;100.00
37078;BME280;22989;55.998;37.212;2023-04-27T08:29:06;63935.97;;;-145.39;100.00
37078;BME280;22989;55.998;37.212;2023-04-27T08:31:31;63935.97;;;-145.39;100.00
37078;BME280;22989;55.998;37.212;2023-04-27T08:33:57;63935.97;;;-145.39;100.00
37078;BME280;22989;55.998;37.212;2023-04-27T08:36:23;63935.97;;;-145.39;100.00
37078;BME280;22989;55.998;37.212;2023-04-27T08:38:51;63935.97;;;-145.39;100.00
37078;BME280;22989;55.998;37.212;2023-04-27T08:41:20;63935.97;;;-145.39;100.00
37078;BME280;22989;55.998;37.212;2023-04-27T08:43:47;63935.97;;;-145.39;100.00
37078;BME280;22989;55.998;37.212;2023-04-27T08:46:20;63935.97;;;-145.39;100.00
37078;BME280;22989;55.998;37.212;2023-04-27T08:48:48;63935.97;;;-145.39;100.00
37078;BME280;22989;55.998;37.212;2023-04-27T08:51:14;63935.97;;;-145.39;100.00
37078;BME280;22989;55.998;37.212;2023-04-27T08:53:44;63935.97;;;-145.39;100.00
37078;BME280;22989;55.998;37.212;2023-04-27T08:56:10;63935.97;;;-145.39;100.00
37078;BME280;22989;55.998;37.212;2023-04-27T08:58:36;63935.97;;;-145.39;100.00
37078;BME280;22989;55.998;37.212;2023-04-27T09:01:05;63935.97;;;-145.39;100.00
37078;BME280;22989;55.998;37.212;2023-04-27T09:03:31;63935.97;;;-145.39;100.00
37078;BME280;22989;55.998;37.212;2023-04-27T09:05:59;63935.97;;;-145.39;100.00
37078;BME280;22989;55.998;37.212;2023-04-27T09:08:24;63935.97;;;-145.39;100.00
37078;BME280;22989;55.998;37.212;2023-04-27T09:10:50;63935.97;;;-145.39;100.00
37078;BME280;22989;55.998;37.212;2023-04-27T09:13:17;63935.97;;;-145.39;100.00
37078;BME280;22989;55.998;37.212;2023-04-27T09:15:46;63935.97;;;-145.39;100.00
37078;BME280;22989;55.998;37.212;2023-04-27T09:20:45;63935.97;;;-145.39;100.00
37078;BME280;22989;55.998;37.212;2023-04-27T09:23:11;63935.97;;;-145.39;100.00
37078;BME280;22989;55.998;37.212;2023-04-27T09:25:49;63935.97;;;-145.39;100.00
37078;BME280;22989;55.998;37.212;2023-04-27T09:28:14;63935.97;;;-145.39;100.00
37078;BME280;22989;55.998;37.212;2023-04-27T09:30:39;63935.97;;;-145.39;100.00
37078;BME280;22989;55.998;37.212;2023-04-27T09:33:05;63935.97;;;-145.39;100.00
37078;BME280;22989;55.998;37.212;2023-04-27T09:35:31;63935.97;;;-145.39;100.00
37078;BME280;22989;55.998;37.212;2023-04-27T09:37:56;63935.97;;;-145.39;100.00
37078;BME280;22989;55.998;37.212;2023-04-27T09:40:23;63935.97;;;-145.39;100.00
37078;BME280;22989;55.998;37.212;2023-04-27T09:43:00;63935.97;;;-145.39;100.00
37078;BME280;22989;55.998;37.212;2023-04-27T09:45:28;63935.97;;;-145.39;100.00
37078;BME280;22989;55.998;37.212;2023-04-27T09:47:54;63935.97;;;-145.39;100.00
37078;BME280;22989;55.998;37.212;2023-04-27T09:50:19;63935.97;;;-145.39;100.00
37078;BME280;22989;55.998;37.212;2023-04-27T09:52:46;63935.97;;;-145.39;100.00
37078;BME280;22989;55.998;37.212;2023-04-27T09:55:15;63935.97;;;-145.39;100.00
37078;BME280;22989;55.998;37.212;2023-04-27T09:57:46;63935.97;;;-145.39;100.00
37078;BME280;22989;55.998;37.212;2023-04-27T10:03:04;63935.97;;;-145.39;100.00
37078;BME280;22989;55.998;37.212;2023-04-27T10:05:44;63935.97;;;-145.39;100.00
37078;BME280;22989;55.998;37.212;2023-04-27T10:08:15;63935.97;;;-145.39;100.00
37078;BME280;22989;55.998;37.212;2023-04-27T10:10:41;63935.97;;;-145.39;100.00
37078;BME280;22989;55.998;37.212;2023-04-27T10:13:06;63935.97;;;-145.39;100.00
37078;BME280;22989;55.998;37.212;2023-04-27T10:15:32;63935.97;;;-145.39;100.00
37078;BME280;22989;55.998;37.212;2023-04-27T10:18:04;63935.97;;;-145.39;100.00
37078;BME280;22989;55.998;37.212;2023-04-27T10:20:34;63935.97;;;-145.39;100.00
37078;BME280;22989;55.998;37.212;2023-04-27T10:23:00;63935.97;;;-145.39;100.00
37078;BME280;22989;55.998;37.212;2023-04-27T10:27:52;63935.97;;;-145.39;100.00
37078;BME280;22989;55.998;37.212;2023-04-27T10:30:19;63935.97;;;-145.39;100.00
37078;BME280;22989;55.998;37.212;2023-04-27T10:32:55;63935.97;;;-145.39;100.00
37078;BME280;22989;55.998;37.212;2023-04-27T10:35:22;63935.97;;;-145.39;100.00
37078;BME280;22989;55.998;37.212;2023-04-27T10:37:47;63935.97;;;-145.39;100.00
37078;BME280;22989;55.998;37.212;2023-04-27T10:40:13;63935.97;;;-145.39;100.00
37078;BME280;22989;55.998;37.212;2023-04-27T10:42:41;63935.97;;;-145.39;100.00
37078;BME280;22989;55.998;37.212;2023-04-27T10:45:07;63935.97;;;-145.39;100.00
37078;BME280;22989;55.998;37.212;2023-04-27T10:47:39;63935.97;;;-145.39;100.00
37078;BME280;22989;55.998;37.212;2023-04-27T10:50:06;63935.97;;;-145.39;100.00
37078;BME280;22989;55.998;37.212;2023-04-27T10:52:32;63935.97;;;-145.39;100.00
37078;BME280;22989;55.998;37.212;2023-04-27T10:54:57;63935.97;;;-145.39;100.00
37078;BME280;22989;55.998;37.212;2023-04-27T10:57:23;63935.97;;;-145.39;100.00
37078;BME280;22989;55.998;37.212;2023-04-27T10:59:52;63935.97;;;-145.39;100.00
37078;BME280;22989;55.998;37.212;2023-04-27T11:02:25;63935.97;;;-145.39;100.00
37078;BME280;22989;55.998;37.212;2023-04-27T11:04:50;63935.97;;;-145.39;100.00
37078;BME280;22989;55.998;37.212;2023-04-27T11:07:23;63935.97;;;-145.39;100.00
37078;BME280;22989;55.998;37.212;2023-04-27T11:09:49;63935.97;;;-145.39;100.00
37078;BME280;22989;55.998;37.212;2023-04-27T11:12:14;63935.97;;;-145.39;100.00
37078;BME280;22989;55.998;37.212;2023-04-27T11:14:40;63935.97;;;-145.39;100.00
37078;BME280;22989;55.998;37.212;2023-04-27T11:17:06;63935.97;;;-145.39;100.00
37078;BME280;22989;55.998;37.212;2023-04-27T11:19:31;63935.97;;;-145.39;100.00
37078;BME280;22989;55.998;37.212;2023-04-27T11:22:03;63935.97;;;-145.39;100.00
37078;BME280;22989;55.998;37.212;2023-04-27T11:24:30;63935.97;;;-145.39;100.00
37078;BME280;22989;55.998;37.212;2023-04-27T11:26:55;63935.97;;;-145.39;100.00
37078;BME280;22989;55.998;37.212;2023-04-27T11:29:21;63935.97;;;-145.39;100.00
37078;BME280;22989;55.998;37.212;2023-04-27T11:31:47;63935.97;;;-145.39;100.00
37078;BME280;22989;55.998;37.212;2023-04-27T11:34:20;63935.97;;;-145.39;100.00
37078;BME280;22989;55.998;37.212;2023-04-27T11:36:55;63935.97;;;-145.39;100.00
37078;BME280;22989;55.998;37.212;2023-04-27T11:39:21;63935.97;;;-145.39;100.00
37078;BME280;22989;55.998;37.212;2023-04-27T11:41:47;63935.97;;;-145.39;100.00
37078;BME280;22989;55.998;37.212;2023-04-27T11:44:13;63935.97;;;-145.39;100.00
37078;BME280;22989;55.998;37.212;2023-04-27T11:46:38;63935.97;;;-145.39;100.00
37078;BME280;22989;55.998;37.212;2023-04-27T11:49:06;63935.97;;;-145.39;100.00
37078;BME280;22989;55.998;37.212;2023-04-27T11:51:35;63935.97;;;-145.39;100.00
37078;BME280;22989;55.998;37.212;2023-04-27T11:54:03;63935.97;;;-145.39;100.00
37078;BME280;22989;55.998;37.212;2023-04-27T11:56:38;63935.97;;;-145.39;100.00
37078;BME280;22989;55.998;37.212;2023-04-27T11:59:04;63935.97;;;-145.39;100.00
37078;BME280;22989;55.998;37.212;2023-04-27T12:01:31;63935.97;;;-145.39;100.00
37078;BME280;22989;55.998;37.212;2023-04-27T12:03:57;63935.97;;;-145.39;100.00
37078;BME280;22989;55.998;37.212;2023-04-27T12:06:23;63935.97;;;-145.39;100.00
37078;BME280;22989;55.998;37.212;2023-04-27T12:08:48;63935.97;;;-145.39;100.00
37078;BME280;22989;55.998;37.212;2023-04-27T12:11:15;63935.97;;;-145.39;100.00
37078;BME280;22989;55.998;37.212;2023-04-27T12:13:41;63935.97;;;-145.39;100.00
37078;BME280;22989;55.998;37.212;2023-04-27T12:16:06;63935.97;;;-145.39;100.00
37078;BME280;22989;55.998;37.212;2023-04-27T12:18:31;63935.97;;;-145.39;100.00
37078;BME280;22989;55.998;37.212;2023-04-27T12:20:57;63935.97;;;-145.39;100.00
37078;BME280;22989;55.998;37.212;2023-04-27T12:23:23;63935.97;;;-145.39;100.00